createdAt,value
2022-09-01T00:00:33.437Z,1003.30
2022-09-01T00:01:33.452Z,1005.00
2022-09-01T00:02:33.528Z,989.40
2022-09-01T00:03:33.450Z,1010.00
2022-09-01T00:04:33.505Z,1043.30
2022-09-01T00:05:33.428Z,1017.10
2022-09-01T00:06:33.415Z,1049.00
2022-09-01T00:07:33.418Z,1061.20
2022-09-01T00:08:33.413Z,1040.00
2022-09-01T00:09:33.435Z,1053.70
2022-09-01T00:10:33.384Z,1037.40
2022-09-01T00:11:33.384Z,1013.30
2022-09-01T00:12:33.377Z,1032.40
2022-09-01T00:13:33.378Z,1097.80
2022-09-01T00:14:33.371Z,1127.70
2022-09-01T00:15:33.391Z,1130.00
2022-09-01T00:16:33.358Z,1152.80
2022-09-01T00:17:33.335Z,1126.60
2022-09-01T00:18:33.364Z,1056.40
2022-09-01T00:19:33.347Z,1070.10
2022-09-01T00:20:33.333Z,1085.80
2022-09-01T00:21:33.328Z,1073.70
2022-09-01T00:22:33.309Z,1119.50
2022-09-01T00:23:33.339Z,1089.00
2022-09-01T00:24:33.323Z,1141.40
2022-09-01T00:25:33.293Z,1128.30
2022-09-01T00:26:33.295Z,1131.30
2022-09-01T00:27:33.282Z,1112.40
2022-09-01T00:28:33.281Z,1171.10
2022-09-01T00:29:33.277Z,1188.40
2022-09-01T00:30:33.261Z,1133.10
2022-09-01T00:31:33.364Z,1157.20
2022-09-01T00:32:33.252Z,1178.70
2022-09-01T00:33:33.266Z,1170.40
2022-09-01T00:34:33.244Z,1179.60
2022-09-01T00:35:37.083Z,1163.60
2022-09-01T00:36:33.210Z,1153.70
2022-09-01T00:37:33.226Z,1196.50
2022-09-01T00:38:33.250Z,1216.50
2022-09-01T00:39:33.206Z,1156.20
2022-09-01T00:40:33.283Z,1169.70
2022-09-01T00:41:33.210Z,1184.10
2022-09-01T00:42:33.198Z,1160.50
2022-09-01T00:43:33.206Z,1168.10
2022-09-01T00:44:33.178Z,1172.40
2022-09-01T00:45:33.156Z,1204.30
2022-09-01T00:46:33.263Z,1207.90
2022-09-01T00:47:33.153Z,1201.30
2022-09-01T00:48:33.167Z,1212.50
2022-09-01T00:49:35.265Z,1211.20
2022-09-01T00:50:33.134Z,1226.90
2022-09-01T00:51:33.132Z,1233.00
2022-09-01T00:52:33.117Z,1200.80
2022-09-01T00:53:33.116Z,1244.60
2022-09-01T00:54:33.123Z,1218.00
2022-09-01T00:55:33.111Z,1414.60
2022-09-01T00:56:33.112Z,1372.60
2022-09-01T00:57:33.085Z,1325.50
2022-09-01T00:58:33.101Z,1319.50
2022-09-01T00:59:33.184Z,1378.70
2022-09-01T01:00:33.089Z,1360.60
2022-09-01T01:01:33.143Z,1255.40
2022-09-01T01:02:33.091Z,1337.50
2022-09-01T01:03:33.090Z,1296.50
2022-09-01T01:04:33.057Z,1311.70
2022-09-01T01:05:33.140Z,1352.70
2022-09-01T01:06:33.059Z,1297.20
2022-09-01T01:07:33.043Z,1316.10
2022-09-01T01:08:33.025Z,1390.80
2022-09-01T01:09:33.040Z,1419.70
2022-09-01T01:10:33.044Z,1429.80
2022-09-01T01:11:33.005Z,1618.10
2022-09-01T01:12:33.029Z,1806.50
2022-09-01T01:13:33.012Z,1527.10
2022-09-01T01:14:33.020Z,1687.00
2022-09-01T01:15:32.997Z,1494.90
2022-09-01T01:16:33.064Z,1541.20
2022-09-01T01:17:32.983Z,1644.00
2022-09-01T01:18:32.988Z,1710.20
2022-09-01T01:19:36.965Z,1492.00
2022-09-01T01:20:33.954Z,1567.20
2022-09-01T01:21:33.064Z,1535.30
2022-09-01T01:22:32.931Z,1724.90
2022-09-01T01:23:32.935Z,1612.80
2022-09-01T01:24:32.933Z,1540.90
2022-09-01T01:25:32.932Z,1601.00
2022-09-01T01:26:32.926Z,1611.20
2022-09-01T01:27:32.934Z,1679.00
2022-09-01T01:28:33.910Z,1664.70
2022-09-01T01:29:32.905Z,1675.80
2022-09-01T01:30:32.953Z,1715.20
2022-09-01T01:31:32.887Z,1545.30
2022-09-01T01:32:32.881Z,1601.10
2022-09-01T01:33:32.869Z,1618.60
2022-09-01T01:34:32.860Z,1735.70
2022-09-01T01:35:32.869Z,1647.80
2022-09-01T01:36:32.880Z,1779.40
2022-09-01T01:37:32.872Z,1932.70
2022-09-01T01:38:32.974Z,1999.90
2022-09-01T01:39:32.854Z,1999.90
2022-09-01T01:40:32.938Z,1879.70
2022-09-01T01:41:33.111Z,1823.50
2022-09-01T01:42:32.814Z,1798.70
2022-09-01T01:43:33.843Z,1866.00
2022-09-01T01:44:32.829Z,1847.40
2022-09-01T01:45:32.811Z,1911.10
2022-09-01T01:46:32.877Z,1900.80
2022-09-01T01:47:32.788Z,1934.00
2022-09-01T01:48:32.811Z,1999.90
2022-09-01T01:49:32.802Z,1999.90
2022-09-01T01:50:32.800Z,1999.90
2022-09-01T01:51:32.762Z,1904.70
2022-09-01T01:52:32.766Z,1999.90
2022-09-01T01:53:32.773Z,1991.20
2022-09-01T01:54:32.869Z,1999.90
2022-09-01T01:55:32.754Z,1999.90
2022-09-01T01:56:32.760Z,1999.90
2022-09-01T01:57:32.752Z,1891.40
2022-09-01T01:58:32.744Z,1999.90
2022-09-01T01:59:33.011Z,1999.90
2022-09-01T02:00:32.739Z,1999.90
2022-09-01T02:01:32.758Z,1999.90
2022-09-01T02:02:33.529Z,1999.90
2022-09-01T02:03:32.711Z,1999.90
2022-09-01T02:04:32.735Z,1999.90
2022-09-01T02:05:32.697Z,1999.90
2022-09-01T02:06:32.689Z,1999.90
2022-09-01T02:07:32.978Z,1999.90
2022-09-01T02:08:32.686Z,1999.90
2022-09-01T02:09:32.709Z,1999.90
2022-09-01T02:10:32.669Z,1999.90
2022-09-01T02:11:32.674Z,1999.90
2022-09-01T02:12:32.677Z,1999.90
2022-09-01T02:13:32.639Z,1999.90
2022-09-01T02:14:33.659Z,1999.90
2022-09-01T02:15:32.609Z,1999.90
2022-09-01T02:16:32.663Z,1999.90
2022-09-01T02:17:32.621Z,1999.90
2022-09-01T02:18:32.605Z,1999.90
2022-09-01T02:19:32.589Z,1999.90
2022-09-01T02:20:33.093Z,1999.90
2022-09-01T02:21:32.575Z,1999.90
2022-09-01T02:22:32.577Z,1999.90
2022-09-01T02:23:32.567Z,1999.90
2022-09-01T02:24:32.593Z,1999.90
2022-09-01T02:25:32.598Z,1999.90
2022-09-01T02:26:32.600Z,1999.90
2022-09-01T02:27:32.557Z,1999.90
2022-09-01T02:28:32.552Z,1999.90
2022-09-01T02:29:33.287Z,1999.90
2022-09-01T02:30:33.623Z,1999.90
2022-09-01T02:31:32.538Z,1999.90
2022-09-01T02:32:32.555Z,1999.90
2022-09-01T02:33:32.537Z,1999.90
2022-09-01T02:34:32.545Z,1999.90
2022-09-01T02:35:32.498Z,1999.90
2022-09-01T02:36:32.641Z,1999.90
2022-09-01T02:37:32.549Z,1999.90
2022-09-01T02:38:32.493Z,1999.90
2022-09-01T02:39:32.479Z,1999.90
2022-09-01T02:40:32.521Z,1999.90
2022-09-01T02:41:32.561Z,1999.90
2022-09-01T02:42:32.450Z,1999.90
2022-09-01T02:43:32.473Z,1999.90
2022-09-01T02:44:32.458Z,1999.90
2022-09-01T02:45:32.546Z,1999.90
2022-09-01T02:46:32.446Z,1999.90
2022-09-01T02:47:32.541Z,1999.90
2022-09-01T02:48:32.445Z,1999.90
2022-09-01T02:49:32.421Z,1999.90
2022-09-01T02:50:32.408Z,1999.90
2022-09-01T02:51:32.413Z,1999.90
2022-09-01T02:52:32.413Z,1999.90
2022-09-01T02:53:32.428Z,1999.90
2022-09-01T02:54:32.398Z,1999.90
2022-09-01T02:55:32.370Z,1999.90
2022-09-01T02:56:32.383Z,1999.90
2022-09-01T02:57:32.385Z,1999.90
2022-09-01T02:58:32.391Z,1999.90
2022-09-01T02:59:32.362Z,1999.90
2022-09-01T03:00:32.351Z,1999.90
2022-09-01T03:01:32.432Z,1999.90
2022-09-01T03:02:32.354Z,1999.90
2022-09-01T03:03:33.107Z,1999.90
2022-09-01T03:04:32.420Z,1999.90
2022-09-01T03:05:32.315Z,1999.90
2022-09-01T03:06:32.350Z,1999.90
2022-09-01T03:07:32.317Z,1999.90
2022-09-01T03:08:32.313Z,1999.90
2022-09-01T03:09:32.331Z,1999.90
2022-09-01T03:10:32.301Z,1999.90
2022-09-01T03:11:32.271Z,1999.90
2022-09-01T03:12:32.288Z,1999.90
2022-09-01T03:13:32.273Z,1999.90
2022-09-01T03:14:32.289Z,1999.90
2022-09-01T03:15:32.265Z,1999.90
2022-09-01T03:16:32.350Z,1999.90
2022-09-01T03:17:32.229Z,1999.90
2022-09-01T03:18:32.238Z,1999.90
2022-09-01T03:19:32.216Z,1999.90
2022-09-01T03:20:32.328Z,1999.90
2022-09-01T03:21:32.258Z,1999.90
2022-09-01T03:22:32.225Z,1999.90
2022-09-01T03:23:32.215Z,1999.90
2022-09-01T03:24:32.201Z,1999.90
2022-09-01T03:25:32.231Z,1999.90
2022-09-01T03:26:32.202Z,1999.90
2022-09-01T03:27:32.194Z,1999.90
2022-09-01T03:28:32.179Z,1999.90
2022-09-01T03:29:32.173Z,1999.90
2022-09-01T03:30:32.169Z,1999.90
2022-09-01T03:31:32.328Z,1999.90
2022-09-01T03:32:32.160Z,1999.90
2022-09-01T03:33:32.151Z,1999.90
2022-09-01T03:34:32.143Z,1999.90
2022-09-01T03:35:32.161Z,1999.90
2022-09-01T03:36:32.243Z,1999.90
2022-09-01T03:37:32.131Z,1999.90
2022-09-01T03:38:32.127Z,1999.90
2022-09-01T03:39:32.131Z,1999.90
2022-09-01T03:40:32.144Z,1999.90
2022-09-01T03:41:32.110Z,1999.90
2022-09-01T03:42:32.186Z,1999.90
2022-09-01T03:43:35.780Z,1999.90
2022-09-01T03:44:32.100Z,1999.90
2022-09-01T03:45:32.130Z,1999.90
2022-09-01T03:46:35.859Z,1999.90
2022-09-01T03:47:33.093Z,1999.90
2022-09-01T03:48:32.136Z,1999.90
2022-09-01T03:49:32.060Z,1999.90
2022-09-01T03:50:32.059Z,1999.90
2022-09-01T03:51:32.039Z,1999.90
2022-09-01T03:52:32.047Z,1999.90
2022-09-01T03:53:32.052Z,1999.90
2022-09-01T03:54:32.025Z,1999.90
2022-09-01T03:55:32.029Z,1999.90
2022-09-01T03:56:32.018Z,1999.90
2022-09-01T03:57:32.545Z,1999.90
2022-09-01T03:58:32.011Z,1999.90
2022-09-01T03:59:31.983Z,1999.90
2022-09-01T04:00:32.002Z,1999.90
2022-09-01T04:01:32.013Z,1999.90
2022-09-01T04:02:32.086Z,1999.90
2022-09-01T04:03:32.001Z,1999.90
2022-09-01T04:04:31.983Z,1999.90
2022-09-01T04:05:31.957Z,1999.90
2022-09-01T04:06:31.936Z,1999.90
2022-09-01T04:07:31.963Z,1999.90
2022-09-01T04:08:32.966Z,1999.90
2022-09-01T04:09:31.950Z,1999.90
2022-09-01T04:10:31.933Z,1999.90
2022-09-01T04:11:31.933Z,1999.90
2022-09-01T04:12:31.930Z,1999.90
2022-09-01T04:13:31.920Z,1999.90
2022-09-01T04:14:32.032Z,1999.90
2022-09-01T04:15:31.894Z,1999.90
2022-09-01T04:16:31.954Z,1999.90
2022-09-01T04:17:31.907Z,1999.90
2022-09-01T04:18:31.896Z,1999.90
2022-09-01T04:19:31.995Z,1999.90
2022-09-01T04:20:31.884Z,1999.90
2022-09-01T04:21:31.863Z,1999.90
2022-09-01T04:22:31.875Z,1999.90
2022-09-01T04:23:31.846Z,1999.90
2022-09-01T04:24:31.853Z,1999.90
2022-09-01T04:25:31.893Z,1999.90
2022-09-01T04:26:31.822Z,1999.90
2022-09-01T04:27:31.837Z,1999.90
2022-09-01T04:28:31.820Z,1999.90
2022-09-01T04:29:32.138Z,1999.90
2022-09-01T04:30:31.859Z,1999.90
2022-09-01T04:31:31.873Z,1999.90
2022-09-01T04:32:31.812Z,1999.90
2022-09-01T04:33:31.797Z,1999.90
2022-09-01T04:34:31.781Z,1999.90
2022-09-01T04:35:31.789Z,1999.90
2022-09-01T04:36:33.048Z,1999.90
2022-09-01T04:37:31.789Z,1999.90
2022-09-01T04:38:31.773Z,1999.90
2022-09-01T04:39:31.743Z,1999.90
2022-09-01T04:40:31.817Z,1999.90
2022-09-01T04:41:31.765Z,1999.90
2022-09-01T04:42:31.742Z,1999.90
2022-09-01T04:43:31.728Z,1999.90
2022-09-01T04:44:31.722Z,1999.90
2022-09-01T04:45:31.754Z,1999.90
2022-09-01T04:46:31.697Z,1999.90
2022-09-01T04:47:36.038Z,1999.90
2022-09-01T04:48:31.759Z,1999.90
2022-09-01T04:49:31.680Z,1999.90
2022-09-01T04:50:31.680Z,1999.90
2022-09-01T04:51:31.676Z,1999.90
2022-09-01T04:52:31.714Z,1999.90
2022-09-01T04:53:31.658Z,1999.90
2022-09-01T04:54:31.677Z,1999.90
2022-09-01T04:55:31.677Z,1999.90
2022-09-01T04:56:31.653Z,1999.90
2022-09-01T04:57:31.633Z,1999.90
2022-09-01T04:58:32.675Z,1999.90
2022-09-01T04:59:31.637Z,1999.90
2022-09-01T05:00:31.680Z,1999.90
2022-09-01T05:01:31.633Z,1999.90
2022-09-01T05:02:31.722Z,1999.90
2022-09-01T05:03:31.615Z,1999.90
2022-09-01T05:04:31.627Z,1999.90
2022-09-01T05:05:31.601Z,1999.90
2022-09-01T05:06:31.589Z,1999.90
2022-09-01T05:07:31.590Z,1999.90
2022-09-01T05:08:32.734Z,1999.90
2022-09-01T05:09:31.598Z,1999.90
2022-09-01T05:10:31.565Z,1999.90
2022-09-01T05:11:31.572Z,1999.90
2022-09-01T05:12:31.552Z,1999.90
2022-09-01T05:13:31.563Z,1999.90
2022-09-01T05:14:31.558Z,1999.90
2022-09-01T05:15:31.543Z,1999.90
2022-09-01T05:16:31.590Z,1999.90
2022-09-01T05:17:31.537Z,1999.90
2022-09-01T05:18:31.528Z,1999.90
2022-09-01T05:19:31.539Z,1999.90
2022-09-01T05:20:31.528Z,1999.90
2022-09-01T05:21:31.504Z,1999.90
2022-09-01T05:22:31.493Z,1999.90
2022-09-01T05:23:31.498Z,1999.90
2022-09-01T05:24:31.515Z,1999.90
2022-09-01T05:25:31.492Z,1999.90
2022-09-01T05:26:31.485Z,1999.90
2022-09-01T05:27:31.479Z,1999.90
2022-09-01T05:28:31.515Z,1999.90
2022-09-01T05:29:31.478Z,1999.90
2022-09-01T05:30:31.452Z,1999.90
2022-09-01T05:31:31.514Z,1999.90
2022-09-01T05:32:31.441Z,1999.90
2022-09-01T05:33:31.462Z,1999.90
2022-09-01T05:34:31.455Z,1999.90
2022-09-01T05:35:32.780Z,1999.90
2022-09-01T05:36:31.411Z,1999.90
2022-09-01T05:37:31.414Z,1999.90
2022-09-01T05:38:31.436Z,1999.90
2022-09-01T05:39:31.418Z,1999.90
2022-09-01T05:40:31.441Z,1999.90
2022-09-01T05:41:31.394Z,1999.90
2022-09-01T05:42:31.372Z,1999.90
2022-09-01T05:43:31.397Z,1999.90
2022-09-01T05:44:31.383Z,1999.90
2022-09-01T05:45:44.884Z,1999.90
2022-09-01T05:46:32.407Z,1999.90
2022-09-01T05:47:31.350Z,1999.90
2022-09-01T05:48:31.358Z,1999.90
2022-09-01T05:49:31.348Z,1999.90
2022-09-01T05:50:31.338Z,1999.90
2022-09-01T05:51:44.349Z,1999.90
2022-09-01T05:52:33.334Z,1755.20
2022-09-01T05:53:31.343Z,1999.90
2022-09-01T05:54:31.332Z,1970.70
2022-09-01T05:55:31.333Z,1984.80
2022-09-01T05:56:31.312Z,1893.50
2022-09-01T05:57:34.692Z,1718.90
2022-09-01T05:59:32.285Z,1708.00
2022-09-01T06:00:31.337Z,1704.90
2022-09-01T06:01:31.333Z,1657.00
2022-09-01T06:02:31.348Z,1477.40
2022-09-01T06:03:31.349Z,1492.00
2022-09-01T06:04:31.293Z,1494.30
2022-09-01T06:05:31.244Z,1500.60
2022-09-01T06:06:43.793Z,1470.90
2022-09-01T06:07:31.241Z,1310.40
2022-09-01T06:08:31.233Z,1314.60
2022-09-01T06:09:31.252Z,1220.30
2022-09-01T06:10:31.213Z,1191.10
2022-09-01T06:11:31.211Z,1197.20
2022-09-01T06:12:31.194Z,1182.10
2022-09-01T06:13:32.199Z,1175.50
2022-09-01T06:14:31.203Z,1120.20
2022-09-01T06:15:31.302Z,1132.60
2022-09-01T06:16:31.272Z,1109.30
2022-09-01T06:17:34.666Z,1089.90
2022-09-01T06:18:31.175Z,1094.90
2022-09-01T06:19:36.205Z,1058.50
2022-09-01T06:20:32.281Z,1086.10
2022-09-01T06:21:31.151Z,1080.00
2022-09-01T06:22:31.142Z,1079.70
2022-09-01T06:23:31.135Z,1110.10
2022-09-01T06:24:31.133Z,1098.30
2022-09-01T06:25:31.140Z,1087.60
2022-09-01T06:26:31.146Z,1045.40
2022-09-01T06:27:31.125Z,1076.90
2022-09-01T06:28:31.118Z,1072.20
2022-09-01T06:29:31.115Z,1021.60
2022-09-01T06:30:31.104Z,972.80
2022-09-01T06:31:31.152Z,1034.50
2022-09-01T06:32:31.111Z,1020.50
2022-09-01T06:33:31.090Z,1008.10
2022-09-01T06:34:31.089Z,989.90
2022-09-01T06:35:31.068Z,946.40
2022-09-01T06:36:34.845Z,981.60
2022-09-01T06:37:31.176Z,922.10
2022-09-01T06:38:31.054Z,909.50
2022-09-01T06:39:31.046Z,891.40
2022-09-01T06:40:31.115Z,893.70
2022-09-01T06:41:31.037Z,870.30
2022-09-01T06:42:31.055Z,833.80
2022-09-01T06:43:31.034Z,903.60
2022-09-01T06:44:31.065Z,863.80
2022-09-01T06:45:31.024Z,827.00
2022-09-01T06:46:31.082Z,757.60
2022-09-01T06:47:31.002Z,700.90
2022-09-01T06:48:31.079Z,780.60
2022-09-01T06:49:31.001Z,815.10
2022-09-01T06:51:32.110Z,621.70
2022-09-01T06:53:31.941Z,600.60
2022-09-01T06:53:34.147Z,647.70
2022-09-01T06:54:31.961Z,599.50
2022-09-01T06:55:30.959Z,543.00
2022-09-01T06:56:31.986Z,602.00
2022-09-01T06:58:31.961Z,654.40
2022-09-01T06:59:34.567Z,638.70
2022-09-01T07:00:32.059Z,623.20
2022-09-01T07:01:31.060Z,645.50
2022-09-01T07:03:31.906Z,496.70
2022-09-01T07:04:30.935Z,554.60
2022-09-01T07:08:32.889Z,441.40
2022-09-01T07:09:47.593Z,432.00
2022-09-01T07:10:30.863Z,417.30
2022-09-01T07:12:31.855Z,394.80
2022-09-01T07:13:30.840Z,484.30
2022-09-01T07:14:30.829Z,428.60
2022-09-01T07:16:34.680Z,324.60
2022-09-01T07:17:31.827Z,415.80
2022-09-01T07:18:30.841Z,513.10
2022-09-01T07:20:30.847Z,324.80
2022-09-01T07:21:40.901Z,195.10
2022-09-01T07:22:36.975Z,162.80
2022-09-01T07:23:46.328Z,232.90
2022-09-01T07:24:32.776Z,217.50
2022-09-01T07:25:51.146Z,216.40
2022-09-01T07:26:32.785Z,263.20
2022-09-01T07:27:36.090Z,312.00
2022-09-01T07:28:37.639Z,248.40
2022-09-01T07:29:32.738Z,239.10
2022-09-01T07:30:30.756Z,132.20
2022-09-01T07:32:48.100Z,130.50
2022-09-01T07:33:53.872Z,101.20
2022-09-01T07:34:40.111Z,343.10
2022-09-01T07:35:32.718Z,221.20
2022-09-01T07:36:31.065Z,241.10
2022-09-01T07:39:47.129Z,245.80
2022-09-01T07:42:59.010Z,564.30
2022-09-01T07:43:33.473Z,131.00
2022-09-01T07:44:30.664Z,138.10
2022-09-01T07:45:30.666Z,141.80
2022-09-01T07:46:38.158Z,109.60
2022-09-01T07:49:50.097Z,117.90
2022-09-01T07:51:07.486Z,119.70
2022-09-01T07:51:37.111Z,126.60
2022-09-01T07:52:32.735Z,78.80
2022-09-01T07:53:30.601Z,78.80
2022-09-01T07:54:30.603Z,111.90
2022-09-01T07:55:30.602Z,439.40
2022-09-01T07:56:30.596Z,219.30
2022-09-01T07:57:30.590Z,307.80
2022-09-01T07:58:30.682Z,318.70
2022-09-01T07:59:30.581Z,296.70
2022-09-01T08:00:31.542Z,335.60
2022-09-01T08:01:30.585Z,380.50
2022-09-01T08:02:30.583Z,480.50
2022-09-01T08:03:30.673Z,596.40
2022-09-01T08:04:30.543Z,675.60
2022-09-01T08:05:30.540Z,768.00
2022-09-01T08:06:38.050Z,900.00
2022-09-01T08:07:30.534Z,955.40
2022-09-01T08:08:30.927Z,907.00
2022-09-01T08:09:37.532Z,1098.20
2022-09-01T08:10:32.522Z,1147.20
2022-09-01T08:12:32.498Z,1343.40
2022-09-01T08:13:30.500Z,1763.90
2022-09-01T08:14:33.741Z,1999.90
2022-09-01T08:16:39.214Z,1999.90
2022-09-01T08:17:50.210Z,1999.90
2022-09-01T08:18:48.217Z,1999.90
2022-09-01T08:19:31.490Z,1999.90
2022-09-01T08:20:30.452Z,1999.90
2022-09-01T08:21:30.453Z,1999.90
2022-09-01T08:22:30.445Z,1999.90
2022-09-01T08:23:30.436Z,1999.90
2022-09-01T08:24:30.434Z,1999.90
2022-09-01T08:25:30.536Z,1999.90
2022-09-01T08:26:30.431Z,1999.90
2022-09-01T08:27:30.408Z,1999.90
2022-09-01T08:28:30.582Z,1999.90
2022-09-01T08:29:30.705Z,1999.90
2022-09-01T08:30:30.404Z,1999.90
2022-09-01T08:31:30.986Z,1999.90
2022-09-01T08:32:31.386Z,1999.90
2022-09-01T08:33:30.370Z,1999.90
2022-09-01T08:34:31.382Z,1999.90
2022-09-01T08:35:31.023Z,1999.90
2022-09-01T08:36:30.416Z,1999.90
2022-09-01T08:37:30.337Z,1999.90
2022-09-01T08:38:30.346Z,1999.90
2022-09-01T08:39:30.344Z,1999.90
2022-09-01T08:40:30.452Z,1999.90
2022-09-01T08:41:35.370Z,1999.90
2022-09-01T08:42:33.054Z,1999.90
2022-09-01T08:43:30.317Z,1999.90
2022-09-01T08:44:30.326Z,1999.90
2022-09-01T08:45:30.321Z,1999.90
2022-09-01T08:46:30.374Z,1999.90
2022-09-01T08:47:43.635Z,1999.90
2022-09-01T08:49:42.915Z,1999.90
2022-09-01T08:50:31.278Z,1999.90
2022-09-01T08:51:30.524Z,1999.90
2022-09-01T08:52:30.269Z,1999.90
2022-09-01T08:53:32.649Z,1999.90
2022-09-01T08:54:32.052Z,1999.90
2022-09-01T08:55:30.255Z,1999.90
2022-09-01T08:56:30.378Z,1999.90
2022-09-01T08:57:30.233Z,1999.90
2022-09-01T08:58:32.295Z,1999.90
2022-09-01T08:59:30.235Z,1999.90
2022-09-01T09:00:30.267Z,1999.90
2022-09-01T09:01:30.526Z,1999.90
2022-09-01T09:02:31.266Z,1999.90
2022-09-01T09:03:40.443Z,1999.90
2022-09-01T09:04:30.207Z,1999.90
2022-09-01T09:05:30.202Z,1999.90
2022-09-01T09:06:30.211Z,1999.90
2022-09-01T09:07:30.179Z,1999.90
2022-09-01T09:08:33.198Z,1999.90
2022-09-01T09:09:34.131Z,1999.90
2022-09-01T09:10:31.165Z,1999.90
2022-09-01T09:11:30.180Z,1999.90
2022-09-01T09:12:30.163Z,1999.90
2022-09-01T09:13:30.148Z,1999.90
2022-09-01T09:14:30.173Z,1999.90
2022-09-01T09:15:30.182Z,1999.90
2022-09-01T09:16:31.275Z,1999.90
2022-09-01T09:17:30.152Z,1999.90
2022-09-01T09:18:38.827Z,1999.90
2022-09-01T09:19:31.171Z,1999.90
2022-09-01T09:20:30.127Z,1999.90
2022-09-01T09:21:30.386Z,1999.90
2022-09-01T09:22:30.105Z,1999.90
2022-09-01T09:23:30.116Z,1999.90
2022-09-01T09:24:37.081Z,1999.90
2022-09-01T09:25:30.111Z,1999.90
2022-09-01T09:26:42.187Z,1999.90
2022-09-01T09:27:32.089Z,1999.90
2022-09-01T09:28:30.077Z,1999.90
2022-09-01T09:29:30.077Z,1999.90
2022-09-01T09:30:30.183Z,1999.90
2022-09-01T09:31:30.122Z,1999.90
2022-09-01T09:32:50.394Z,1999.90
2022-09-01T09:33:48.531Z,1999.90
2022-09-01T09:34:32.033Z,1999.90
2022-09-01T09:35:30.062Z,1999.90
2022-09-01T09:36:30.030Z,1999.90
2022-09-01T09:37:30.032Z,1999.90
2022-09-01T09:38:30.017Z,1999.90
2022-09-01T09:39:30.028Z,1999.90
2022-09-01T09:40:30.059Z,1999.90
2022-09-01T09:41:30.071Z,1999.90
2022-09-01T09:42:34.854Z,1999.90
2022-09-01T09:43:31.989Z,1999.90
2022-09-01T09:44:29.992Z,1999.90
2022-09-01T09:45:29.984Z,1999.90
2022-09-01T09:46:30.134Z,1999.90
2022-09-01T09:47:43.233Z,1999.90
2022-09-01T09:48:31.979Z,1999.90
2022-09-01T09:49:36.623Z,1999.90
2022-09-01T09:50:29.954Z,1999.90
2022-09-01T09:51:29.947Z,1999.90
2022-09-01T09:52:30.047Z,1999.90
2022-09-01T09:53:29.930Z,1999.90
2022-09-01T09:54:29.919Z,1999.90
2022-09-01T09:55:29.947Z,1999.90
2022-09-01T09:56:29.919Z,1999.90
2022-09-01T09:57:29.947Z,1999.90
2022-09-01T09:58:29.964Z,1999.90
2022-09-01T09:59:56.564Z,1999.90
2022-09-01T10:00:31.889Z,1999.90
2022-09-01T10:01:30.026Z,1999.90
2022-09-01T10:02:29.895Z,1999.90
2022-09-01T10:03:29.990Z,1999.90
2022-09-01T10:04:29.901Z,1999.90
2022-09-01T10:05:30.091Z,1999.90
2022-09-01T10:06:29.875Z,1999.90
2022-09-01T10:07:29.856Z,1999.90
2022-09-01T10:08:29.902Z,1999.90
2022-09-01T10:09:29.853Z,1999.90
2022-09-01T10:10:29.847Z,1999.90
2022-09-01T10:11:33.453Z,1999.90
2022-09-01T10:12:31.833Z,1999.90
2022-09-01T10:13:32.462Z,1999.90
2022-09-01T10:14:52.394Z,1999.90
2022-09-01T10:15:31.821Z,1999.90
2022-09-01T10:16:32.094Z,1999.90
2022-09-01T10:17:29.916Z,1999.90
2022-09-01T10:18:29.810Z,1999.90
2022-09-01T10:19:35.113Z,1999.90
2022-09-01T10:20:30.797Z,1999.90
2022-09-01T10:21:29.778Z,1999.90
2022-09-01T10:22:30.398Z,1999.90
2022-09-01T10:23:31.032Z,1999.90
2022-09-01T10:24:30.746Z,1999.90
2022-09-01T10:25:32.380Z,1999.90
2022-09-01T10:26:29.749Z,1999.90
2022-09-01T10:27:29.742Z,1999.90
2022-09-01T10:28:29.743Z,1999.90
2022-09-01T10:29:35.062Z,1999.90
2022-09-01T10:30:29.993Z,1999.90
2022-09-01T10:31:32.532Z,1999.90
2022-09-01T10:32:37.251Z,1999.90
2022-09-01T10:33:31.705Z,1999.90
2022-09-01T10:34:29.707Z,1999.90
2022-09-01T10:35:29.710Z,1999.90
2022-09-01T10:36:29.734Z,1999.90
2022-09-01T10:37:29.704Z,1999.90
2022-09-01T10:38:29.715Z,1999.90
2022-09-01T10:39:31.095Z,1999.90
2022-09-01T10:40:31.641Z,1999.90
2022-09-01T10:41:30.692Z,1999.90
2022-09-01T10:42:29.693Z,1999.90
2022-09-01T10:43:30.635Z,1999.90
2022-09-01T10:44:31.328Z,1999.90
2022-09-01T10:45:30.668Z,1999.90
2022-09-01T10:46:41.240Z,1999.90
2022-09-01T10:47:30.697Z,1999.90
2022-09-01T10:48:31.991Z,1999.90
2022-09-01T10:49:30.626Z,1999.90
2022-09-01T10:50:35.104Z,1999.90
2022-09-01T10:51:36.278Z,1999.90
2022-09-01T10:52:30.622Z,1999.90
2022-09-01T10:53:29.619Z,1999.90
2022-09-01T10:54:29.622Z,1999.90
2022-09-01T10:55:29.613Z,1999.90
2022-09-01T10:56:36.586Z,1999.90
2022-09-01T10:57:30.670Z,1999.90
2022-09-01T10:59:33.703Z,1999.90
2022-09-01T11:00:35.120Z,1999.90
2022-09-01T11:01:47.776Z,1999.90
2022-09-01T11:02:35.971Z,1999.90
2022-09-01T11:03:31.967Z,1999.90
2022-09-01T11:04:29.788Z,1999.90
2022-09-01T11:05:33.226Z,1999.90
2022-09-01T11:06:33.306Z,1999.90
2022-09-01T11:07:50.447Z,1999.90
2022-09-01T11:08:30.851Z,1999.90
2022-09-01T11:09:29.513Z,1999.90
2022-09-01T11:10:33.870Z,1999.90
2022-09-01T11:11:30.507Z,1999.90
2022-09-01T11:12:30.236Z,1999.90
2022-09-01T11:13:29.517Z,1999.90
2022-09-01T11:14:29.506Z,1999.90
2022-09-01T11:15:29.496Z,1999.90
2022-09-01T11:17:29.660Z,1999.90
2022-09-01T11:18:30.007Z,1999.90
2022-09-01T11:19:29.467Z,1999.90
2022-09-01T11:20:29.465Z,1999.90
2022-09-01T11:21:29.458Z,1999.90
2022-09-01T11:22:29.468Z,1999.90
2022-09-01T11:23:29.465Z,1999.90
2022-09-01T11:24:29.562Z,1999.90
2022-09-01T11:25:38.813Z,1999.90
2022-09-01T11:26:31.432Z,1999.90
2022-09-01T11:27:29.425Z,1999.90
2022-09-01T11:28:29.426Z,1999.90
2022-09-01T11:29:29.458Z,1999.90
2022-09-01T11:30:29.414Z,1999.90
2022-09-01T11:31:29.514Z,1999.90
2022-09-01T11:32:29.409Z,1999.90
2022-09-01T11:33:30.392Z,1999.90
2022-09-01T11:34:29.390Z,1999.90
2022-09-01T11:35:29.398Z,1999.90
2022-09-01T11:36:29.373Z,1999.90
2022-09-01T11:37:29.359Z,1999.90
2022-09-01T11:38:29.374Z,1999.90
2022-09-01T11:39:29.353Z,1999.90
2022-09-01T11:40:32.360Z,1999.90
2022-09-01T11:41:29.348Z,1999.90
2022-09-01T11:42:29.353Z,1999.90
2022-09-01T11:43:29.356Z,1999.90
2022-09-01T11:44:29.320Z,1999.90
2022-09-01T11:45:29.382Z,1999.90
2022-09-01T11:46:29.427Z,1999.90
2022-09-01T11:47:29.338Z,1999.90
2022-09-01T11:48:29.333Z,1999.90
2022-09-01T11:49:29.312Z,1999.90
2022-09-01T11:50:29.311Z,1999.90
2022-09-01T11:51:29.415Z,1999.90
2022-09-01T11:52:29.290Z,1999.90
2022-09-01T11:53:29.295Z,1999.90
2022-09-01T11:54:29.278Z,1999.90
2022-09-01T11:55:29.261Z,1999.90
2022-09-01T11:56:29.265Z,1999.90
2022-09-01T11:57:29.384Z,1999.90
2022-09-01T11:58:29.250Z,1999.90
2022-09-01T11:59:29.253Z,1999.90
2022-09-01T12:00:29.237Z,1999.90
2022-09-01T12:01:29.225Z,1999.90
2022-09-01T12:02:29.363Z,1999.90
2022-09-01T12:03:29.352Z,1999.90
2022-09-01T12:04:29.229Z,1999.90
2022-09-01T12:05:29.225Z,1999.90
2022-09-01T12:06:29.216Z,1999.90
2022-09-01T12:07:29.212Z,1999.90
2022-09-01T12:08:29.327Z,1999.90
2022-09-01T12:09:29.185Z,1999.90
2022-09-01T12:10:29.190Z,1999.90
2022-09-01T12:11:29.200Z,1999.90
2022-09-01T12:12:29.194Z,1999.90
2022-09-01T12:13:29.296Z,1999.90
2022-09-01T12:14:43.412Z,1999.90
2022-09-01T12:15:29.176Z,1999.90
2022-09-01T12:16:29.225Z,1999.90
2022-09-01T12:17:29.139Z,1999.90
2022-09-01T12:18:29.165Z,1999.90
2022-09-01T12:19:29.254Z,1999.90
2022-09-01T12:20:29.912Z,1999.90
2022-09-01T12:21:29.201Z,1999.90
2022-09-01T12:22:29.188Z,1999.90
2022-09-01T12:23:29.126Z,1999.90
2022-09-01T12:24:29.148Z,1999.90
2022-09-01T12:25:29.120Z,1999.90
2022-09-01T12:26:29.098Z,1999.90
2022-09-01T12:27:29.101Z,1999.90
2022-09-01T12:28:30.524Z,1999.90
2022-09-01T12:29:32.220Z,1999.90
2022-09-01T12:30:29.178Z,1999.90